Terminal Aerodrome Forecast
Issued by NWS Flagstaff, AZ

Home | Current Version | Previous Version | Text Only | Print | Product List | Glossary On
Versions: 1 2 3 4 5 6 7 8 9 10
910
FTUS45 KFGZ 280528
TAFFLG
TAF
KFLG 280528Z 2806/2906 27019G29KT P6SM FEW060 SCT200
     FM280900 24010KT P6SM BKN150
     FM281500 04015G25KT P6SM BKN150
     FM281800 29022G32KT P6SM BKN250
     FM290200 35014KT P6SM BKN070 OVC250=

USA.gov is the U.S. government's official web portal to all federal, state and local government web resources and services.